Impacts TAF Board
For situational awareness. Not to be used for flight planning purposes.
IDs:

KACT - Waco Rgnl, TX, US

Issued at 1130 UTC 13 Dec 2019
Updated at 1354 UTC 13 Dec 2019
Potential Impact None Slight Moderate High
Time1351Z 13/14Z 13/15Z 13/16Z 13/17Z 13/18Z 13/19Z 13/20Z 13/21Z 13/22Z 13/23Z 14/00Z 14/01Z 14/02Z>>
Type OBS PRVL PRVL PRVL PRVL PRVL PRVL PRVL PRVL PRVL PRVL PRVL PRVL PRVL
VIS 7 >6 >6 >6 >6 >6 >6 >6 >6 >6 >6 >6 >6 >6
CIG -- -- -- -- -- -- -- -- -- -- -- -- -- --
Cover CLR FEW FEW FEW FEW FEW FEW FEW FEW FEW FEW FEW FEW FEW
FltCat VFR VFR VFR VFR VFR VFR VFR VFR VFR VFR VFR VFR VFR VFR
WX -- -- -- -- -- -- -- -- -- -- -- -- -- --
WDir VRB 190 190 190 190 310 310 310 310 310 310 310 310 310
WSpd 0 6 6 6 6 7 7 7 7 7 7 7 7 7
WGst -- -- -- -- -- -- -- -- -- -- -- -- -- --
Raw TAF
KACT 131130Z 1312/1412 19006KT P6SM FEW020
  FM131800 31007KT P6SM FEW250


Raw METAR
KACT 131351Z 00000KT 7SM CLR 07/05 A2992 RMK AO2 SLP130 T00670050 $
KACT 131251Z 10004KT 9SM CLR 04/03 A2993 RMK AO2 SLP133 T00440028 $
KACT 131151Z 12005KT 9SM CLR 05/03 A2992 RMK AO2 SLP132 T00500033 10089 20050 56014 $
KACT 131051Z 19006KT 10SM CLR 06/03 A2994 RMK AO2 SLP135 T00610033 $

METAR Board
Radar Display
Forecast Discussion
For situational awareness. Not to be used for flight planning purposes.